Time;durP1;ratioP1;P1;durP2;ratioP2;P2;SDS_P1;SDS_P2;PMS_P1;PMS_P2;Temp;Humidity;BMP_temperature;BMP_pressure;BME280_temperature;BME280_humidity;BME280_pressure;Samples;Min_cycle;Max_cycle;Signal;HPM_P1;HPM_P2
2023/04/15 00:00:41;;;;;;;7.53;5.80;;;7.80;99.90;;;;;;5035266;28;20503;-52
2023/04/15 00:03:07;;;;;;;7.17;5.40;;;7.80;99.90;;;;;;5036928;28;20437;-51
2023/04/15 00:05:32;;;;;;;7.67;5.00;;;7.70;99.90;;;;;;5036044;28;20249;-51
2023/04/15 00:07:58;;;;;;;6.57;5.33;;;7.80;1.00;;;;;;5034531;28;20438;-51
2023/04/15 00:10:25;;;;;;;11.30;4.90;;;7.70;99.90;;;;;;5035355;28;20259;-51
2023/04/15 00:12:51;;;;;;;7.33;5.60;;;7.80;1.00;;;;;;5036212;28;20480;-51
2023/04/15 00:15:17;;;;;;;7.90;5.70;;;7.70;99.90;;;;;;5037120;28;20436;-50
2023/04/15 00:17:43;;;;;;;12.90;6.07;;;7.70;1.00;;;;;;5034830;28;20456;-50
2023/04/15 00:20:09;;;;;;;7.77;5.50;;;7.70;1.00;;;;;;5036687;28;20438;-51
2023/04/15 00:22:35;;;;;;;9.00;5.30;;;7.60;99.90;;;;;;5035644;28;20195;-50
2023/04/15 00:25:01;;;;;;;7.97;5.30;;;7.60;99.90;;;;;;5034924;28;20459;-50
2023/04/15 00:27:26;;;;;;;11.63;6.00;;;7.60;1.00;;;;;;5035318;28;20535;-50
2023/04/15 00:29:52;;;;;;;7.63;5.20;;;7.60;99.90;;;;;;5036044;28;20268;-52
2023/04/15 00:32:17;;;;;;;6.17;5.23;;;7.50;1.00;;;;;;5035966;28;20671;-50
2023/04/15 00:34:43;;;;;;;12.33;6.30;;;7.60;1.00;;;;;;5034805;28;20226;-50
2023/04/15 00:37:09;;;;;;;8.00;5.57;;;7.50;1.00;;;;;;5037332;28;20745;-50
2023/04/15 00:39:35;;;;;;;11.83;5.83;;;7.50;99.90;;;;;;5034738;28;20233;-51
2023/04/15 00:42:02;;;;;;;7.43;5.73;;;7.50;99.90;;;;;;5036356;28;20496;-50
2023/04/15 00:44:28;;;;;;;9.70;5.73;;;7.50;1.00;;;;;;5035795;28;20204;-50
2023/04/15 00:46:54;;;;;;;9.23;5.67;;;7.50;1.00;;;;;;5035332;28;20522;-51
2023/04/15 00:49:20;;;;;;;9.87;5.70;;;7.50;1.00;;;;;;5033693;28;20193;-50
2023/04/15 00:51:46;;;;;;;8.60;5.87;;;7.50;1.00;;;;;;5035663;28;20465;-51
2023/04/15 00:54:11;;;;;;;7.70;6.13;;;7.50;19.30;;;;;;5036304;28;20583;-50
2023/04/15 00:56:38;;;;;;;9.57;6.30;;;7.40;73.60;;;;;;5034216;28;20188;-51
2023/04/15 00:59:07;;;;;;;8.73;6.47;;;7.50;99.90;;;;;;5035543;28;20554;-51
2023/04/15 01:01:37;;;;;;;9.93;6.40;;;7.40;99.90;;;;;;5034646;28;20430;-50
2023/04/15 01:04:03;;;;;;;10.40;7.17;;;7.40;99.90;;;;;;5035865;28;20499;-50
2023/04/15 01:06:31;;;;;;;9.17;7.30;;;7.40;99.90;;;;;;5032049;28;20950;-50
2023/04/15 01:08:57;;;;;;;10.60;6.97;;;7.40;99.90;;;;;;5032090;28;20446;-50
2023/04/15 01:11:23;;;;;;;11.00;7.60;;;7.40;99.90;;;;;;5033705;28;20442;-51
2023/04/15 01:13:51;;;;;;;11.07;7.13;;;7.40;99.90;;;;;;5032223;28;20531;-50
2023/04/15 01:16:17;;;;;;;9.00;7.30;;;7.40;99.90;;;;;;5033093;28;20453;-49
2023/04/15 01:18:43;;;;;;;10.23;7.50;;;7.30;99.90;;;;;;5028260;28;21039;-50
2023/04/15 01:21:09;;;;;;;13.70;7.83;;;7.40;99.90;;;;;;5031822;28;20476;-50
2023/04/15 01:23:37;;;;;;;12.43;8.17;;;7.40;99.90;;;;;;5031285;28;20188;-50
2023/04/15 01:26:03;;;;;;;10.80;7.50;;;7.40;99.90;;;;;;5031577;28;20444;-50
2023/04/15 01:28:30;;;;;;;9.87;7.40;;;7.40;99.90;;;;;;5031588;28;20520;-50
2023/04/15 01:31:06;;;;;;;13.60;7.83;;;7.40;99.90;;;;;;5030724;28;23069;-49
2023/04/15 01:33:31;;;;;;;12.43;8.30;;;7.40;99.90;;;;;;5031190;28;20587;-50
2023/04/15 01:35:57;;;;;;;13.20;7.93;;;7.40;99.90;;;;;;5031860;28;20511;-50
2023/04/15 01:38:24;;;;;;;11.30;7.93;;;7.40;99.90;;;;;;5031090;28;20184;-49
2023/04/15 01:40:49;;;;;;;10.20;7.30;;;7.40;99.90;;;;;;5032023;28;20195;-50
2023/04/15 01:43:15;;;;;;;13.83;9.20;;;7.40;99.90;;;;;;5031744;28;20445;-50
2023/04/15 01:45:41;;;;;;;11.70;7.77;;;7.40;99.90;;;;;;5032843;28;20184;-49
2023/04/15 01:48:07;;;;;;;10.93;7.60;;;7.40;99.90;;;;;;5030593;28;20246;-50
2023/04/15 01:50:32;;;;;;;13.97;9.60;;;7.40;99.90;;;;;;5030455;28;20438;-50
2023/04/15 01:52:58;;;;;;;12.13;8.67;;;7.40;99.90;;;;;;5032413;28;20531;-49
2023/04/15 01:55:24;;;;;;;14.20;8.37;;;7.40;99.90;;;;;;5031696;28;20584;-50
2023/04/15 01:57:49;;;;;;;11.70;8.60;;;7.50;99.90;;;;;;5030753;28;20198;-49
2023/04/15 02:00:16;;;;;;;11.00;8.33;;;7.40;99.90;;;;;;5023689;28;20198;-50
2023/04/15 02:02:42;;;;;;;15.37;9.13;;;7.40;99.90;;;;;;5032948;28;20188;-50
2023/04/15 02:05:08;;;;;;;15.13;10.40;;;7.40;99.90;;;;;;5031249;28;20430;-49
2023/04/15 02:07:34;;;;;;;15.87;9.87;;;7.40;99.90;;;;;;5027991;28;20483;-49
2023/04/15 02:10:00;;;;;;;10.90;8.40;;;7.40;99.90;;;;;;5032083;28;20532;-50
2023/04/15 02:12:26;;;;;;;13.10;8.53;;;7.40;99.90;;;;;;5030954;28;20549;-50
2023/04/15 02:14:52;;;;;;;13.00;8.80;;;7.50;99.90;;;;;;5030036;28;20219;-49
2023/04/15 02:17:17;;;;;;;12.90;8.17;;;7.40;99.90;;;;;;5032768;28;20761;-51
2023/04/15 02:19:43;;;;;;;13.80;8.47;;;7.40;99.90;;;;;;5031194;28;20463;-51
2023/04/15 02:22:10;;;;;;;14.10;9.60;;;7.40;99.90;;;;;;5031075;28;20559;-50
2023/04/15 02:24:35;;;;;;;16.20;9.83;;;7.40;99.90;;;;;;5038644;28;20649;-50
2023/04/15 02:27:02;;;;;;;14.27;9.20;;;7.40;99.90;;;;;;5033933;28;20528;-50
2023/04/15 02:29:27;;;;;;;15.87;9.20;;;7.30;99.90;;;;;;5033099;28;20180;-50
2023/04/15 02:31:53;;;;;;;14.00;8.80;;;7.30;99.90;;;;;;5031881;28;20973;-50
2023/04/15 02:34:19;;;;;;;15.33;9.80;;;7.30;99.90;;;;;;5030593;28;20310;-50
2023/04/15 02:36:46;;;;;;;14.77;9.60;;;7.40;99.90;;;;;;5030589;28;20188;-47
2023/04/15 02:39:13;;;;;;;13.47;9.23;;;7.30;99.90;;;;;;5029685;28;20195;-47
2023/04/15 02:41:39;;;;;;;14.97;9.37;;;7.30;99.90;;;;;;5031161;28;20449;-47
2023/04/15 02:44:06;;;;;;;15.20;9.50;;;7.40;99.90;;;;;;5029400;28;20819;-47
2023/04/15 02:46:31;;;;;;;13.83;9.20;;;7.40;99.90;;;;;;5031411;28;20188;-47
2023/04/15 02:48:58;;;;;;;15.03;9.67;;;7.40;99.90;;;;;;5029095;28;21039;-50
2023/04/15 02:51:24;;;;;;;17.10;10.57;;;7.50;99.90;;;;;;5032034;28;20190;-50
2023/04/15 02:53:50;;;;;;;19.47;10.60;;;7.50;99.90;;;;;;5030848;28;20997;-50
2023/04/15 02:56:16;;;;;;;16.87;10.30;;;7.50;99.90;;;;;;5030567;28;20444;-48
2023/04/15 02:58:44;;;;;;;16.00;9.87;;;7.60;99.90;;;;;;5031351;28;20199;-47
2023/04/15 03:01:10;;;;;;;18.83;10.77;;;7.60;99.90;;;;;;5029470;28;20516;-47
2023/04/15 03:03:35;;;;;;;16.97;10.50;;;7.50;99.90;;;;;;5029194;28;20862;-48
2023/04/15 03:06:01;;;;;;;15.43;9.87;;;7.40;99.90;;;;;;5030728;28;21021;-47
2023/04/15 03:08:27;;;;;;;16.40;10.30;;;7.50;99.90;;;;;;5028010;28;20555;-48
2023/04/15 03:10:53;;;;;;;14.40;9.20;;;7.50;99.90;;;;;;5030815;28;20199;-50
2023/04/15 03:13:19;;;;;;;16.83;10.30;;;7.50;99.90;;;;;;5029280;28;20238;-47
2023/04/15 03:15:46;;;;;;;17.17;10.67;;;7.60;99.90;;;;;;5031070;28;20433;-47
2023/04/15 03:18:12;;;;;;;16.83;10.40;;;7.60;99.90;;;;;;5028494;28;21902;-47
2023/04/15 03:20:37;;;;;;;17.10;10.10;;;7.50;99.90;;;;;;5028643;28;20447;-47
2023/04/15 03:23:03;;;;;;;20.70;11.77;;;7.50;99.90;;;;;;5029243;28;20191;-46
2023/04/15 03:25:28;;;;;;;19.67;11.83;;;7.50;99.90;;;;;;5029128;28;21436;-47
2023/04/15 03:27:54;;;;;;;18.70;11.37;;;7.50;99.90;;;;;;5030849;28;20187;-47
2023/04/15 03:30:20;;;;;;;15.97;10.30;;;7.50;99.90;;;;;;5029548;28;20226;-46
2023/04/15 03:32:45;;;;;;;20.00;11.50;;;7.50;99.90;;;;;;5032062;28;20257;-47
2023/04/15 03:35:11;;;;;;;20.03;11.90;;;7.50;99.90;;;;;;5029948;28;24167;-47
2023/04/15 03:37:37;;;;;;;27.00;12.50;;;7.60;99.90;;;;;;5031914;28;20184;-47
2023/04/15 03:40:03;;;;;;;20.50;11.87;;;7.60;99.90;;;;;;5028292;28;20517;-47
2023/04/15 03:42:28;;;;;;;22.13;13.07;;;7.60;99.90;;;;;;5029948;28;20190;-48
2023/04/15 03:44:54;;;;;;;24.20;13.13;;;7.60;99.90;;;;;;5028641;28;20305;-47
2023/04/15 03:47:19;;;;;;;24.43;12.97;;;7.60;99.90;;;;;;5029126;28;20231;-48
2023/04/15 03:49:45;;;;;;;25.20;13.60;;;7.60;99.90;;;;;;5026422;28;20199;-48
2023/04/15 03:52:11;;;;;;;22.73;12.70;;;7.60;99.90;;;;;;5027942;28;20786;-48
2023/04/15 03:54:36;;;;;;;23.50;13.23;;;7.50;99.90;;;;;;5030459;28;20229;-48
2023/04/15 03:57:02;;;;;;;27.53;13.87;;;7.50;99.90;;;;;;5028275;28;20191;-47
2023/04/15 03:59:27;;;;;;;24.00;13.37;;;7.70;99.90;;;;;;5029385;28;20191;-47
2023/04/15 04:01:53;;;;;;;24.60;14.03;;;7.70;99.90;;;;;;5029736;28;20268;-47
2023/04/15 04:04:18;;;;;;;27.00;14.57;;;7.70;99.90;;;;;;5028418;28;20195;-48
2023/04/15 04:06:44;;;;;;;27.57;15.20;;;7.60;99.90;;;;;;5028320;28;20187;-47
2023/04/15 04:09:10;;;;;;;31.30;15.30;;;7.70;99.90;;;;;;5028181;28;20211;-47
2023/04/15 04:11:36;;;;;;;23.53;13.73;;;7.70;99.90;;;;;;5029145;28;20191;-48
2023/04/15 04:14:02;;;;;;;29.13;15.57;;;7.70;99.90;;;;;;5028589;28;20248;-47
2023/04/15 04:16:27;;;;;;;29.63;16.47;;;7.70;99.90;;;;;;5030298;28;20477;-47
2023/04/15 04:18:53;;;;;;;31.77;15.67;;;7.70;99.90;;;;;;5024213;28;20209;-47
2023/04/15 04:21:19;;;;;;;33.87;16.60;;;7.60;99.90;;;;;;5029493;28;20187;-47
2023/04/15 04:23:45;;;;;;;32.17;15.47;;;7.70;99.90;;;;;;5028337;28;20249;-47
2023/04/15 04:26:10;;;;;;;33.50;17.10;;;7.70;99.90;;;;;;5027300;28;20472;-47
2023/04/15 04:28:38;;;;;;;31.80;16.53;;;7.70;99.90;;;;;;5029356;28;20259;-47
2023/04/15 04:31:04;;;;;;;34.30;18.10;;;7.60;99.90;;;;;;5027571;28;20184;-47
2023/04/15 04:33:30;;;;;;;33.53;17.93;;;7.70;99.90;;;;;;5029821;28;20815;-51
2023/04/15 04:35:55;;;;;;;38.77;17.03;;;7.80;99.90;;;;;;5028518;28;20190;-47
2023/04/15 04:38:21;;;;;;;34.33;18.27;;;7.80;99.90;;;;;;5029405;28;20824;-47
2023/04/15 04:40:46;;;;;;;33.37;18.00;;;7.90;99.90;;;;;;5027672;28;20270;-47
2023/04/15 04:43:12;;;;;;;35.10;17.87;;;7.80;99.90;;;;;;5031965;28;20237;-48
2023/04/15 04:45:37;;;;;;;31.20;16.60;;;7.80;99.90;;;;;;5032037;28;20206;-47
2023/04/15 04:48:05;;;;;;;41.17;19.40;;;7.80;99.90;;;;;;5031158;28;20243;-47
2023/04/15 04:50:31;;;;;;;39.27;20.57;;;7.80;99.90;;;;;;5032939;28;20257;-47
2023/04/15 04:52:57;;;;;;;38.37;20.53;;;7.80;99.90;;;;;;5031046;28;20439;-47
2023/04/15 04:55:22;;;;;;;35.23;18.47;;;7.80;99.90;;;;;;5029199;28;20183;-47
2023/04/15 04:57:48;;;;;;;42.57;21.20;;;7.80;99.90;;;;;;5030817;28;20191;-47
2023/04/15 05:00:14;;;;;;;44.60;21.73;;;7.80;99.90;;;;;;5031000;28;20214;-47
2023/04/15 05:02:42;;;;;;;48.07;20.97;;;7.90;99.90;;;;;;5030155;28;20277;-47
2023/04/15 05:05:08;;;;;;;43.93;21.63;;;7.90;99.90;;;;;;5031583;28;20194;-47
2023/04/15 05:07:34;;;;;;;46.33;20.73;;;7.90;99.90;;;;;;5031491;28;21005;-47
2023/04/15 05:10:00;;;;;;;41.97;21.57;;;7.90;99.90;;;;;;5027969;28;20443;-47
2023/04/15 05:12:26;;;;;;;53.17;23.30;;;7.90;99.90;;;;;;5031484;28;20195;-47
2023/04/15 05:14:51;;;;;;;37.33;20.40;;;8.00;99.90;;;;;;5031368;28;20568;-47
2023/04/15 05:17:17;;;;;;;49.03;23.30;;;8.00;99.90;;;;;;5032855;28;20658;-47
2023/04/15 05:19:42;;;;;;;48.23;23.63;;;8.00;99.90;;;;;;5030649;28;20554;-47
2023/04/15 05:22:08;;;;;;;45.70;21.57;;;7.90;99.90;;;;;;5031822;28;20261;-47
2023/04/15 05:24:33;;;;;;;44.30;23.67;;;7.90;99.90;;;;;;5031110;28;20198;-47
2023/04/15 05:27:00;;;;;;;47.00;23.03;;;7.90;99.90;;;;;;5031145;28;20188;-48
2023/04/15 05:29:26;;;;;;;53.13;25.30;;;7.90;99.90;;;;;;5031877;28;20546;-47
2023/04/15 05:31:52;;;;;;;58.53;25.33;;;8.00;99.90;;;;;;5030812;28;20434;-47
2023/04/15 05:34:17;;;;;;;52.93;26.10;;;8.00;99.90;;;;;;5034564;28;20277;-47
2023/04/15 05:36:43;;;;;;;57.43;25.60;;;8.10;99.90;;;;;;5029802;28;20310;-47
2023/04/15 05:39:08;;;;;;;54.07;26.20;;;8.10;99.90;;;;;;5031911;28;20520;-47
2023/04/15 05:41:34;;;;;;;54.23;26.30;;;8.10;99.90;;;;;;5032068;28;20183;-47
2023/04/15 05:44:00;;;;;;;63.77;27.07;;;8.10;99.90;;;;;;5029827;28;20309;-47
2023/04/15 05:46:26;;;;;;;54.30;26.90;;;8.10;99.90;;;;;;5031731;28;20196;-47
2023/04/15 05:48:52;;;;;;;50.30;25.97;;;8.00;99.90;;;;;;5030791;28;21218;-47
2023/04/15 05:51:17;;;;;;;53.80;25.63;;;8.00;99.90;;;;;;5031458;28;20725;-47
2023/04/15 05:53:44;;;;;;;47.43;25.07;;;8.10;99.90;;;;;;5027766;28;20223;-48
2023/04/15 05:56:10;;;;;;;55.10;27.40;;;8.10;99.90;;;;;;5030115;28;20551;-47
2023/04/15 05:58:35;;;;;;;53.57;26.33;;;8.10;99.90;;;;;;5029958;28;20444;-47
2023/04/15 06:01:02;;;;;;;61.80;28.03;;;8.10;99.90;;;;;;5030785;28;20261;-47
2023/04/15 06:03:28;;;;;;;55.70;28.40;;;8.10;99.90;;;;;;5031614;28;20183;-47
2023/04/15 06:05:53;;;;;;;60.17;27.60;;;8.10;99.90;;;;;;5031417;28;20449;-48
2023/04/15 06:08:19;;;;;;;50.93;27.90;;;8.20;99.90;;;;;;5032520;28;20934;-48
2023/04/15 06:10:45;;;;;;;51.83;27.20;;;8.20;99.90;;;;;;5030909;28;20327;-48
2023/04/15 06:13:10;;;;;;;57.13;26.90;;;8.20;99.90;;;;;;5031769;28;20215;-48
2023/04/15 06:15:36;;;;;;;50.33;27.27;;;8.20;99.90;;;;;;5029437;28;20200;-47
2023/04/15 06:18:02;;;;;;;49.00;26.40;;;8.20;99.90;;;;;;5032951;28;20273;-48
2023/04/15 06:20:27;;;;;;;56.53;29.60;;;8.20;99.90;;;;;;5030137;28;20488;-48
2023/04/15 06:22:53;;;;;;;59.77;28.57;;;8.20;99.90;;;;;;5030683;28;20582;-49
2023/04/15 06:25:18;;;;;;;55.33;28.50;;;8.20;99.90;;;;;;5030759;28;20572;-49
2023/04/15 06:27:44;;;;;;;64.93;32.07;;;8.30;99.90;;;;;;5029974;28;20214;-48
2023/04/15 06:30:10;;;;;;;51.57;27.57;;;8.30;99.90;;;;;;5030991;28;20282;-48
2023/04/15 06:32:36;;;;;;;63.97;32.10;;;8.30;99.90;;;;;;5028240;28;20215;-48
2023/04/15 06:35:02;;;;;;;61.37;30.90;;;8.30;99.90;;;;;;5030254;28;20514;-48
2023/04/15 06:37:28;;;;;;;61.10;30.63;;;8.30;99.90;;;;;;5028333;28;20209;-48
2023/04/15 06:39:54;;;;;;;59.83;31.10;;;8.30;99.90;;;;;;5029874;28;20450;-48
2023/04/15 06:42:20;;;;;;;65.00;31.07;;;8.30;99.90;;;;;;5029892;28;20176;-48
2023/04/15 06:44:46;;;;;;;65.37;31.77;;;8.40;99.90;;;;;;5040522;28;20663;-49
2023/04/15 06:47:13;;;;;;;66.67;33.60;;;8.40;99.90;;;;;;5029342;28;20993;-48
2023/04/15 06:49:39;;;;;;;77.53;35.00;;;8.40;99.90;;;;;;5028582;28;20426;-48
2023/04/15 06:52:05;;;;;;;70.83;33.63;;;8.40;99.90;;;;;;5030558;28;20442;-49
2023/04/15 06:54:30;;;;;;;65.83;33.00;;;8.40;99.90;;;;;;5029122;28;20469;-48
2023/04/15 06:56:56;;;;;;;67.50;34.20;;;8.50;99.90;;;;;;5030142;28;20200;-48
2023/04/15 06:59:22;;;;;;;71.73;34.27;;;8.50;99.90;;;;;;5028270;28;20190;-48
2023/04/15 07:01:47;;;;;;;73.83;35.43;;;8.60;99.90;;;;;;5028565;28;20320;-49
2023/04/15 07:04:13;;;;;;;73.07;34.80;;;8.60;99.90;;;;;;5030155;28;20212;-48
2023/04/15 07:06:38;;;;;;;69.53;33.83;;;8.60;99.90;;;;;;5029761;28;20562;-48
2023/04/15 07:09:04;;;;;;;80.70;37.43;;;8.70;99.90;;;;;;5029369;28;20199;-48
2023/04/15 07:11:30;;;;;;;77.47;37.40;;;8.80;99.90;;;;;;5028640;28;20191;-49
2023/04/15 07:13:57;;;;;;;68.40;37.63;;;8.80;99.90;;;;;;5032945;28;20219;-50
2023/04/15 07:16:23;;;;;;;72.97;37.80;;;8.80;99.90;;;;;;5026813;28;20199;-48
2023/04/15 07:18:48;;;;;;;71.80;37.00;;;8.80;99.90;;;;;;5030559;28;20450;-48
2023/04/15 07:21:14;;;;;;;72.07;36.53;;;8.80;99.90;;;;;;5026221;28;20190;-49
2023/04/15 07:23:41;;;;;;;71.63;38.17;;;8.80;99.90;;;;;;5028923;28;20183;-49
2023/04/15 07:26:07;;;;;;;78.10;38.50;;;8.80;99.90;;;;;;5029859;28;20236;-48
2023/04/15 07:28:33;;;;;;;86.67;40.70;;;8.90;99.90;;;;;;5028752;28;20525;-49
2023/04/15 07:30:58;;;;;;;81.03;39.67;;;8.90;99.90;;;;;;5029059;28;21016;-48
2023/04/15 07:33:24;;;;;;;80.93;39.27;;;8.90;99.90;;;;;;5025914;28;20214;-50
2023/04/15 07:35:50;;;;;;;79.60;40.30;;;8.90;99.90;;;;;;5028416;28;20184;-49
2023/04/15 07:38:15;;;;;;;76.97;38.70;;;8.90;99.90;;;;;;5029056;28;20642;-49
2023/04/15 07:40:41;;;;;;;77.50;40.03;;;9.00;99.90;;;;;;5028387;28;20270;-49
2023/04/15 07:43:07;;;;;;;76.40;39.50;;;9.00;99.90;;;;;;5029679;28;20187;-49
2023/04/15 07:45:34;;;;;;;78.63;39.17;;;9.10;99.90;;;;;;5027698;28;20246;-49
2023/04/15 07:48:00;;;;;;;74.00;38.20;;;9.10;99.90;;;;;;5029123;28;20574;-49
2023/04/15 07:50:26;;;;;;;76.93;37.27;;;9.10;99.90;;;;;;5028070;28;20479;-50
2023/04/15 07:52:52;;;;;;;73.90;40.07;;;9.10;99.90;;;;;;5025467;28;20467;-49
2023/04/15 07:55:20;;;;;;;68.20;36.60;;;9.10;99.90;;;;;;5027765;28;20453;-47
2023/04/15 07:57:49;;;;;;;75.23;38.00;;;9.10;99.90;;;;;;5028300;28;20274;-49
2023/04/15 08:00:15;;;;;;;79.07;39.10;;;9.10;99.90;;;;;;5027702;28;20941;-49
2023/04/15 08:02:42;;;;;;;78.90;39.87;;;9.10;99.90;;;;;;5025618;28;21048;-49
2023/04/15 08:05:09;;;;;;;72.70;37.73;;;9.20;99.90;;;;;;5029513;28;20480;-49
2023/04/15 08:07:36;;;;;;;73.57;38.30;;;9.20;99.90;;;;;;5028237;28;20446;-48
2023/04/15 08:10:02;;;;;;;77.73;40.90;;;9.30;99.90;;;;;;5028496;28;20428;-49
2023/04/15 08:12:29;;;;;;;81.53;38.43;;;9.30;99.90;;;;;;5032729;28;20476;-49
2023/04/15 08:14:56;;;;;;;84.33;38.80;;;9.30;99.90;;;;;;5027206;28;20513;-49
2023/04/15 08:17:22;;;;;;;83.20;39.57;;;9.30;99.90;;;;;;5031710;28;20436;-50
2023/04/15 08:19:47;;;;;;;81.73;38.97;;;9.40;99.90;;;;;;5029303;28;20461;-49
2023/04/15 08:22:14;;;;;;;83.23;39.90;;;9.40;99.90;;;;;;5030023;28;20941;-50
2023/04/15 08:24:40;;;;;;;81.43;39.67;;;9.40;99.90;;;;;;5034324;28;20195;-50
2023/04/15 08:27:06;;;;;;;82.43;39.00;;;9.50;99.90;;;;;;5032532;28;20472;-50
2023/04/15 08:29:33;;;;;;;74.93;37.60;;;9.50;99.90;;;;;;5032490;28;20445;-50
2023/04/15 08:32:02;;;;;;;66.30;36.90;;;9.50;99.90;;;;;;5038457;28;20453;-50
2023/04/15 08:34:28;;;;;;;71.22;40.63;;;9.50;99.90;;;;;;5030242;28;20445;-51
2023/04/15 08:36:54;;;;;;;70.07;39.77;;;9.40;99.90;;;;;;5019938;28;20745;-50
2023/04/15 08:39:20;;;;;;;69.43;37.27;;;9.50;99.90;;;;;;5045572;28;20529;-50
2023/04/15 08:41:59;;;;;;;70.93;38.23;;;9.50;99.90;;;;;;5037277;28;20506;-50
2023/04/15 08:44:28;;;;;;;71.40;38.50;;;9.60;99.90;;;;;;5034056;28;20848;-49
2023/04/15 08:46:55;;;;;;;70.00;36.03;;;9.60;99.90;;;;;;5037014;28;20438;-49
2023/04/15 08:49:26;;;;;;;71.70;37.77;;;9.60;99.90;;;;;;5035628;28;20826;-49
2023/04/15 08:51:52;;;;;;;70.17;36.80;;;9.60;99.90;;;;;;5035510;28;20487;-49
2023/04/15 08:54:18;;;;;;;68.63;39.80;;;9.70;99.90;;;;;;5038101;28;20957;-50
2023/04/15 08:56:44;;;;;;;68.50;41.63;;;9.80;99.90;;;;;;5038199;28;20464;-49
2023/04/15 08:59:10;;;;;;;70.60;39.00;;;9.70;99.90;;;;;;5038251;28;20551;-49
2023/04/15 09:01:37;;;;;;;69.20;37.13;;;9.80;99.90;;;;;;5036285;28;20491;-49
2023/04/15 09:04:06;;;;;;;62.03;34.00;;;9.90;99.90;;;;;;5036021;28;20873;-49
2023/04/15 09:06:32;;;;;;;69.40;37.40;;;9.90;99.90;;;;;;5031722;28;20434;-50
2023/04/15 09:08:58;;;;;;;64.10;35.27;;;10.00;99.90;;;;;;5036042;28;20790;-50
2023/04/15 09:11:23;;;;;;;68.90;36.07;;;10.00;99.90;;;;;;5037041;28;20449;-50
2023/04/15 09:13:49;;;;;;;71.67;36.13;;;10.10;99.90;;;;;;5034770;28;20226;-49
2023/04/15 09:16:15;;;;;;;66.03;36.87;;;10.10;99.90;;;;;;5035414;28;20707;-50
2023/04/15 09:18:41;;;;;;;71.20;36.97;;;10.20;99.90;;;;;;5035516;28;20551;-50
2023/04/15 09:21:10;;;;;;;64.07;36.10;;;10.20;99.90;;;;;;5036562;28;20186;-50
2023/04/15 09:23:37;;;;;;;71.07;37.50;;;10.20;99.90;;;;;;5036228;28;20187;-50
2023/04/15 09:26:04;;;;;;;68.70;37.43;;;10.30;99.90;;;;;;5036318;28;20421;-50
2023/04/15 09:28:30;;;;;;;69.60;35.63;;;10.40;99.90;;;;;;5035435;28;20437;-50
2023/04/15 09:31:00;;;;;;;69.57;35.70;;;10.30;99.90;;;;;;5035636;28;20924;-50
2023/04/15 09:33:27;;;;;;;67.33;36.67;;;10.40;99.90;;;;;;5035965;28;20215;-50
2023/04/15 09:35:58;;;;;;;61.93;34.87;;;10.40;99.90;;;;;;5035743;28;20498;-50
2023/04/15 09:38:24;;;;;;;65.47;34.50;;;10.50;99.90;;;;;;5036192;28;20533;-50
2023/04/15 09:40:50;;;;;;;62.30;34.60;;;10.60;99.90;;;;;;5035804;28;20419;-50
2023/04/15 09:43:16;;;;;;;64.40;36.37;;;10.80;99.90;;;;;;5035447;28;20761;-50
2023/04/15 09:45:50;;;;;;;67.60;36.43;;;11.00;99.90;;;;;;5035781;28;20415;-50
2023/04/15 09:48:20;;;;;;;63.10;36.37;;;11.20;99.90;;;;;;5035645;28;20245;-51
2023/04/15 09:50:47;;;;;;;65.67;36.33;;;11.40;66.00;;;;;;5035544;28;20505;-51
2023/04/15 09:53:21;;;;;;;63.00;35.97;;;11.40;21.60;;;;;;5035500;28;20464;-51
2023/04/15 09:55:51;;;;;;;63.50;34.70;;;11.60;25.30;;;;;;5035482;28;20823;-51
2023/04/15 09:58:25;;;;;;;59.97;35.23;;;11.60;1.00;;;;;;5035185;28;20428;-51
2023/04/15 10:00:52;;;;;;;57.97;33.53;;;11.70;1.00;;;;;;5035193;28;20411;-51
2023/04/15 10:03:28;;;;;;;56.43;33.03;;;12.00;1.00;;;;;;5035396;28;20430;-51
2023/04/15 10:05:56;;;;;;;55.20;34.07;;;12.10;1.00;;;;;;5035499;28;20433;-51
2023/04/15 10:08:30;;;;;;;58.43;33.10;;;12.20;1.00;;;;;;5035032;28;20919;-51
2023/04/15 10:10:56;;;;;;;57.80;33.27;;;12.30;99.90;;;;;;5035266;28;20428;-51
2023/04/15 10:13:27;;;;;;;50.00;31.30;;;12.40;44.80;;;;;;5035589;28;20551;-51
2023/04/15 10:16:20;;;;;;;55.10;32.60;;;12.40;99.90;;;;;;5034864;28;20559;-51
2023/04/15 10:18:47;;;;;;;51.10;31.40;;;12.30;1.00;;;;;;5032208;28;20558;-51
2023/04/15 10:21:17;;;;;;;51.33;31.83;;;12.40;99.90;;;;;;5035097;28;20437;-52
2023/04/15 10:23:46;;;;;;;51.80;31.50;;;12.70;99.90;;;;;;5034074;28;20802;-51
2023/04/15 10:26:13;;;;;;;56.53;32.47;;;13.10;67.30;;;;;;5035017;28;20444;-51
2023/04/15 10:28:40;;;;;;;51.77;30.43;;;13.30;1.00;;;;;;5034938;28;20406;-52
2023/04/15 10:31:06;;;;;;;47.13;30.30;;;13.80;1.00;;;;;;5034867;28;20503;-52
2023/04/15 10:33:33;;;;;;;45.33;28.53;;;14.30;1.00;;;;;;5034762;28;20462;-52
2023/04/15 10:36:00;;;;;;;42.70;28.77;;;14.70;1.00;;;;;;5034808;28;20456;-52
2023/04/15 10:38:39;;;;;;;43.37;27.63;;;15.00;99.90;;;;;;5034526;28;20914;-52
2023/04/15 10:41:16;;;;;;;48.23;28.10;;;15.00;99.90;;;;;;5033907;28;20424;-52
2023/04/15 10:43:50;;;;;;;38.17;26.30;;;15.20;99.90;;;;;;5034312;28;21020;-52
2023/04/15 10:46:36;;;;;;;39.43;25.33;;;15.50;99.90;;;;;;5034670;28;21067;-52
2023/04/15 10:49:06;;;;;;;41.17;26.43;;;16.10;99.90;;;;;;5034566;28;20540;-52
2023/04/15 10:51:32;;;;;;;37.20;25.87;;;16.40;1.00;;;;;;5034512;28;20427;-52
2023/04/15 10:53:59;;;;;;;35.73;24.53;;;16.40;1.00;;;;;;5034357;28;20455;-52
2023/04/15 10:56:27;;;;;;;40.90;26.47;;;16.40;1.00;;;;;;5034098;28;20184;-52
2023/04/15 10:58:52;;;;;;;37.80;24.90;;;16.50;1.00;;;;;;5034358;28;20411;-52
2023/04/15 11:01:22;;;;;;;36.73;23.83;;;16.90;1.00;;;;;;5034003;28;20513;-52
2023/04/15 11:03:48;;;;;;;33.70;23.67;;;17.70;1.00;;;;;;5034043;28;20651;-52
2023/04/15 11:06:13;;;;;;;32.50;23.63;;;18.30;1.00;;;;;;5033926;28;20992;-53
2023/04/15 11:08:57;;;;;;;36.20;22.23;;;18.70;1.00;;;;;;5034098;28;20448;-53
2023/04/15 11:11:46;;;;;;;28.00;20.20;;;18.80;1.00;;;;;;5034069;28;20187;-53
2023/04/15 11:14:15;;;;;;;29.13;21.20;;;18.30;1.00;;;;;;5033543;28;20473;-53
2023/04/15 11:16:44;;;;;;;27.57;20.07;;;17.50;1.00;;;;;;5034072;28;20439;-53
2023/04/15 11:19:09;;;;;;;29.07;18.97;;;16.90;1.00;;;;;;5033981;28;20406;-52
2023/04/15 11:21:35;;;;;;;24.87;18.50;;;16.40;1.00;;;;;;5033984;28;20421;-52
2023/04/15 11:24:01;;;;;;;22.40;15.80;;;16.00;1.00;;;;;;5034001;28;20523;-52
2023/04/15 11:26:26;;;;;;;19.03;14.40;;;15.70;1.00;;;;;;5033894;28;20269;-52
2023/04/15 11:28:53;;;;;;;20.00;13.57;;;15.60;1.00;;;;;;5033626;28;20710;-52
2023/04/15 11:31:18;;;;;;;18.13;13.53;;;15.40;1.00;;;;;;5033869;28;20215;-52
2023/04/15 11:33:46;;;;;;;19.60;13.50;;;15.20;1.00;;;;;;5033452;28;20457;-52
2023/04/15 11:36:12;;;;;;;19.37;13.47;;;15.10;1.00;;;;;;5033715;28;20189;-52
2023/04/15 11:38:41;;;;;;;17.53;13.40;;;15.00;1.00;;;;;;5033722;28;20422;-52
2023/04/15 11:41:07;;;;;;;16.13;13.57;;;14.90;1.00;;;;;;5033352;28;20501;-52
2023/04/15 11:43:34;;;;;;;18.33;13.63;;;14.70;1.00;;;;;;5033458;28;20510;-52
2023/04/15 11:46:01;;;;;;;17.50;12.80;;;14.60;1.00;;;;;;5033811;28;20184;-52
2023/04/15 11:48:32;;;;;;;18.03;13.70;;;14.40;1.00;;;;;;5033844;28;20457;-52
2023/04/15 11:50:59;;;;;;;19.43;13.70;;;14.30;1.00;;;;;;5033373;28;20449;-52
2023/04/15 11:53:38;;;;;;;19.03;13.73;;;14.30;1.00;;;;;;5033518;28;20460;-52
2023/04/15 11:56:04;;;;;;;20.47;13.80;;;14.50;1.00;;;;;;5033270;28;20409;-52
2023/04/15 11:58:30;;;;;;;21.80;12.80;;;14.50;1.00;;;;;;5033193;28;20406;-52
2023/04/15 12:01:00;;;;;;;16.57;13.00;;;14.50;1.00;;;;;;5033511;28;20418;-52
2023/04/15 12:03:31;;;;;;;16.73;12.63;;;14.40;1.00;;;;;;5033221;28;20437;-52
2023/04/15 12:06:03;;;;;;;15.53;11.60;;;14.40;1.00;;;;;;5033468;28;20422;-52
2023/04/15 12:08:54;;;;;;;22.47;13.20;;;14.50;1.00;;;;;;5033556;28;20825;-52
2023/04/15 12:11:30;;;;;;;13.70;11.60;;;14.60;1.00;;;;;;5009884;28;20513;-52
2023/04/15 12:13:58;;;;;;;16.27;11.63;;;14.70;1.00;;;;;;5033422;28;20900;-52
2023/04/15 12:16:24;;;;;;;18.90;13.70;;;14.70;1.00;;;;;;5033019;28;20928;-52
2023/04/15 12:18:57;;;;;;;20.17;13.33;;;14.50;1.00;;;;;;5033020;28;20417;-52
2023/04/15 12:21:26;;;;;;;18.53;14.20;;;14.20;1.00;;;;;;5033351;28;20406;-52
2023/04/15 12:23:56;;;;;;;17.07;14.00;;;14.00;1.00;;;;;;5032978;28;20422;-52
2023/04/15 12:26:27;;;;;;;16.03;13.20;;;14.00;1.00;;;;;;5033315;28;20469;-52
2023/04/15 12:29:12;;;;;;;18.00;13.27;;;13.90;1.00;;;;;;5033217;28;20426;-52
2023/04/15 12:31:54;;;;;;;17.67;13.90;;;13.90;1.00;;;;;;5033294;28;20420;-52
2023/04/15 12:34:31;;;;;;;17.97;12.57;;;13.90;1.00;;;;;;5032840;28;20466;-52
2023/04/15 12:36:57;;;;;;;18.03;12.70;;;14.00;1.00;;;;;;5033248;28;20783;-52